Smartville, California
Current Conditions -  °F | °C
As of 6:58 PM on Saturday 25 Oct 2014 (Local Time) from KBAB Reporting Station
Broken Clouds Broken Clouds  
Wind Chill: 63°   Ceiling: 7000
Heat Index: 63°   Visibility: 10mi
Dew Point: 56°   Wind: 13mph
Humidity: 78%   Direction: 180°S
Pressure: 30.02"   Gusts: NA
Location:  39.21°N, 121.3°W
Report Text: KBAB 260158Z AUTO 18011KT 10SM BKN070 17/13 A3002 RMK AO2 RAB0110E0116 SLP241 P0001 T01710132 $
Loading
Personal Weather Stations






























Interactive Weather Map New forecast layout! Learn more

10-Day Weather Forecast

Advertisements
Track Severe Weather on mobile